Time;durP1;ratioP1;P1;durP2;ratioP2;P2;SDS_P1;SDS_P2;PMS_P1;PMS_P2;Temp;Humidity;BMP_temperature;BMP_pressure;BME280_temperature;BME280_humidity;BME280_pressure;Samples;Min_cycle;Max_cycle;Signal;HPM_P1;HPM_P2
2022/06/28 00:00:01;;;;;;;;;;;;;;;26.67;44.74;100920.48;105198;1300;61355;-83
2022/06/28 00:02:26;;;;;;;;;;;;;;;26.67;45.04;100919.75;105222;1300;61243;-83
2022/06/28 00:04:51;;;;;;;;;;;;;;;26.67;44.90;100921.38;105267;1300;61281;-83
2022/06/28 00:07:17;;;;;;;;;;;;;;;26.67;44.78;100921.58;105223;1300;61416;-83
2022/06/28 00:09:42;;;;;;;;;;;;;;;26.67;44.89;100921.61;105256;1299;61249;-83
2022/06/28 00:12:08;;;;;;;;;;;;;;;26.66;44.89;100924.14;105286;1300;61243;-83
2022/06/28 00:17:18;;;;;;;;;;;;;;;26.67;44.71;100930.81;105269;1299;72693;-83
2022/06/28 00:19:43;;;;;;;;;;;;;;;26.66;44.57;100926.31;105237;1300;61237;-83
2022/06/28 00:22:09;;;;;;;;;;;;;;;26.66;44.94;100926.89;105280;1300;61274;-83
2022/06/28 00:24:35;;;;;;;;;;;;;;;26.66;44.90;100926.52;105237;1300;61148;-83
2022/06/28 00:27:00;;;;;;;;;;;;;;;26.66;44.57;100923.33;105209;1300;61441;-83
2022/06/28 00:29:26;;;;;;;;;;;;;;;26.65;44.79;100924.40;105269;1300;61279;-83
2022/06/28 00:31:51;;;;;;;;;;;;;;;26.66;44.88;100924.05;105275;1300;61272;-83
2022/06/28 00:34:17;;;;;;;;;;;;;;;26.65;44.68;100920.08;105262;1300;61278;-81
2022/06/28 00:36:42;;;;;;;;;;;;;;;26.65;44.79;100918.48;105241;1300;62043;-81
2022/06/28 00:39:08;;;;;;;;;;;;;;;26.65;44.71;100921.42;105235;1300;61282;-81
2022/06/28 00:41:34;;;;;;;;;;;;;;;26.65;44.81;100919.80;105326;1297;61418;-81
2022/06/28 00:44:00;;;;;;;;;;;;;;;26.65;44.67;100918.53;105293;1300;75760;-81
2022/06/28 00:46:25;;;;;;;;;;;;;;;26.64;44.73;100918.59;105274;1300;61228;-81
2022/06/28 00:48:51;;;;;;;;;;;;;;;26.65;44.56;100919.25;105211;1298;61271;-80
2022/06/28 00:51:17;;;;;;;;;;;;;;;26.65;44.63;100925.71;105285;1300;61275;-81
2022/06/28 00:53:42;;;;;;;;;;;;;;;26.65;44.86;100919.63;105272;1300;61279;-81
2022/06/28 00:56:08;;;;;;;;;;;;;;;26.64;44.97;100918.56;105261;1300;73925;-81
2022/06/28 00:58:33;;;;;;;;;;;;;;;26.64;44.75;100918.56;105276;1300;61275;-80
2022/06/28 01:00:59;;;;;;;;;;;;;;;26.64;44.69;100921.66;105249;1300;61277;-81
2022/06/28 01:03:24;;;;;;;;;;;;;;;26.64;44.87;100920.39;105265;1300;61268;-81
2022/06/28 01:05:50;;;;;;;;;;;;;;;26.64;44.91;100923.70;105250;1300;61281;-81
2022/06/28 01:08:16;;;;;;;;;;;;;;;26.64;44.74;100922.24;105241;1300;74560;-81
2022/06/28 01:10:41;;;;;;;;;;;;;;;26.64;44.84;100923.33;105306;1300;61220;-81
2022/06/28 01:13:07;;;;;;;;;;;;;;;26.64;44.52;100919.86;105259;1300;61298;-81
2022/06/28 01:15:33;;;;;;;;;;;;;;;26.64;44.76;100917.20;105241;1300;61269;-80
2022/06/28 01:18:02;;;;;;;;;;;;;;;26.63;44.66;100919.21;105277;1300;61304;-80
2022/06/28 01:20:27;;;;;;;;;;;;;;;26.63;44.72;100917.42;105237;1300;76926;-80
2022/06/28 01:22:53;;;;;;;;;;;;;;;26.63;44.54;100918.88;105229;1300;61285;-81
2022/06/28 01:25:19;;;;;;;;;;;;;;;26.63;44.67;100913.46;105247;1299;61368;-81
2022/06/28 01:27:44;;;;;;;;;;;;;;;26.63;44.54;100912.21;105215;1300;61246;-81
2022/06/28 01:30:10;;;;;;;;;;;;;;;26.63;44.80;100916.54;105237;1300;61383;-81
2022/06/28 01:32:36;;;;;;;;;;;;;;;26.63;44.60;100912.92;105295;1300;61257;-81
2022/06/28 01:35:01;;;;;;;;;;;;;;;26.62;44.73;100912.23;105306;1300;61261;-81
2022/06/28 01:37:27;;;;;;;;;;;;;;;26.62;44.68;100910.07;105214;1300;61233;-80
2022/06/28 01:39:53;;;;;;;;;;;;;;;26.63;44.64;100908.27;105197;1300;61302;-80
2022/06/28 01:42:20;;;;;;;;;;;;;;;26.63;44.68;100912.20;105240;1300;61431;-80
2022/06/28 01:44:45;;;;;;;;;;;;;;;26.63;44.64;100907.16;105302;1299;61362;-80
2022/06/28 01:47:11;;;;;;;;;;;;;;;26.63;44.70;100910.98;105282;1300;61291;-80
2022/06/28 01:49:38;;;;;;;;;;;;;;;26.63;44.49;100909.52;105268;1300;61182;-80
2022/06/28 01:52:03;;;;;;;;;;;;;;;26.62;44.71;100907.55;105247;1300;61272;-80
2022/06/28 01:54:29;;;;;;;;;;;;;;;26.62;44.77;100906.86;105332;1299;61291;-80
2022/06/28 01:56:55;;;;;;;;;;;;;;;26.62;44.66;100910.30;104932;1300;61298;-80
2022/06/28 01:59:20;;;;;;;;;;;;;;;26.62;44.72;100907.79;105206;1300;61454;-80
2022/06/28 02:01:45;;;;;;;;;;;;;;;26.62;44.73;100914.30;105176;1300;61279;-80
2022/06/28 02:04:23;;;;;;;;;;;;;;;26.61;44.77;100913.80;105262;1300;61372;-83
2022/06/28 02:06:48;;;;;;;;;;;;;;;26.61;44.69;100918.84;105237;1300;61173;-83
2022/06/28 02:09:14;;;;;;;;;;;;;;;26.61;44.70;100920.67;105254;1300;61436;-81
2022/06/28 02:11:39;;;;;;;;;;;;;;;26.60;44.69;100921.98;105250;1300;61394;-81
2022/06/28 02:14:05;;;;;;;;;;;;;;;26.61;44.43;100928.45;105168;1300;61278;-81
2022/06/28 02:16:31;;;;;;;;;;;;;;;26.60;44.66;100923.09;105288;1300;61348;-81
2022/06/28 02:18:56;;;;;;;;;;;;;;;26.60;44.47;100921.30;105259;1300;61147;-81
2022/06/28 02:21:22;;;;;;;;;;;;;;;26.60;44.60;100922.20;105286;1300;61248;-81
2022/06/28 02:23:48;;;;;;;;;;;;;;;26.60;44.45;100925.06;105236;1300;61261;-81
2022/06/28 02:26:13;;;;;;;;;;;;;;;26.59;44.51;100922.25;105243;1300;61380;-81
2022/06/28 02:28:39;;;;;;;;;;;;;;;26.59;44.55;100922.45;105263;1300;61370;-81
2022/06/28 02:31:11;;;;;;;;;;;;;;;26.59;44.44;100924.64;105297;1299;61309;-81
2022/06/28 02:33:36;;;;;;;;;;;;;;;26.59;44.53;100925.89;105236;1298;61428;-82
2022/06/28 02:41:30;;;;;;;;;;;;;;;26.59;44.45;100933.67;105215;1300;61111;-82
2022/06/28 02:43:56;;;;;;;;;;;;;;;26.58;44.42;100937.48;105268;1300;61281;-82
2022/06/28 02:46:21;;;;;;;;;;;;;;;26.58;44.63;100936.98;105229;1300;61268;-82
2022/06/28 02:48:47;;;;;;;;;;;;;;;26.58;44.43;100932.64;105263;1300;61280;-81
2022/06/28 02:51:13;;;;;;;;;;;;;;;26.59;44.64;100937.84;105266;1300;61259;-81
2022/06/28 02:53:38;;;;;;;;;;;;;;;26.58;44.44;100935.92;105272;1300;61465;-82
2022/06/28 02:56:04;;;;;;;;;;;;;;;26.58;44.37;100933.92;105265;1300;61287;-81
2022/06/28 02:58:30;;;;;;;;;;;;;;;26.58;44.47;100935.35;105251;1300;61177;-81
2022/06/28 03:00:56;;;;;;;;;;;;;;;26.58;44.59;100932.84;105290;1299;61271;-81
2022/06/28 03:03:21;;;;;;;;;;;;;;;26.58;44.46;100936.80;105289;1300;61289;-81
2022/06/28 03:05:46;;;;;;;;;;;;;;;26.58;44.49;100940.40;105272;1300;61274;-81
2022/06/28 03:08:12;;;;;;;;;;;;;;;26.58;44.58;100941.27;105231;1299;61262;-81
2022/06/28 03:10:37;;;;;;;;;;;;;;;26.58;44.45;100938.97;105247;1300;61259;-81
2022/06/28 03:13:03;;;;;;;;;;;;;;;26.58;44.46;100938.63;105265;1300;62071;-81
2022/06/28 03:15:29;;;;;;;;;;;;;;;26.58;44.44;100938.05;105223;1300;61491;-81
2022/06/28 03:17:54;;;;;;;;;;;;;;;26.58;44.44;100935.92;105268;1300;61282;-82
2022/06/28 03:20:20;;;;;;;;;;;;;;;26.58;44.34;100941.13;105210;1300;62415;-82
2022/06/28 03:22:46;;;;;;;;;;;;;;;26.58;44.47;100937.52;105115;1299;61529;-82
2022/06/28 03:25:12;;;;;;;;;;;;;;;26.58;44.36;100942.36;105132;1300;61308;-82
2022/06/28 03:27:38;;;;;;;;;;;;;;;26.58;44.44;100941.51;105283;1300;61234;-82
2022/06/28 03:30:04;;;;;;;;;;;;;;;26.58;44.40;100944.96;105295;1300;62181;-82
2022/06/28 03:32:29;;;;;;;;;;;;;;;26.57;44.26;100945.38;105264;1300;61741;-82
2022/06/28 03:34:54;;;;;;;;;;;;;;;26.57;44.46;100953.30;105298;1300;61399;-82
2022/06/28 03:37:20;;;;;;;;;;;;;;;26.57;44.56;100955.30;105279;1300;61267;-82
2022/06/28 03:39:45;;;;;;;;;;;;;;;26.57;44.22;100962.36;105267;1300;61258;-82
2022/06/28 03:42:11;;;;;;;;;;;;;;;26.56;44.35;100961.34;105258;1300;61275;-82
2022/06/28 03:44:37;;;;;;;;;;;;;;;26.56;44.45;100960.85;105206;1300;61276;-82
2022/06/28 03:47:02;;;;;;;;;;;;;;;26.55;44.14;100958.89;105236;1300;61381;-82
2022/06/28 03:49:28;;;;;;;;;;;;;;;26.55;44.32;100959.42;105290;1300;73621;-82
2022/06/28 03:51:53;;;;;;;;;;;;;;;26.55;44.50;100959.43;105160;1300;59265;-82
2022/06/28 03:54:19;;;;;;;;;;;;;;;26.54;44.56;100954.30;105137;1302;61351;-82
2022/06/28 03:56:44;;;;;;;;;;;;;;;26.54;44.46;100950.14;105123;1301;61306;-82
2022/06/28 03:59:10;;;;;;;;;;;;;;;26.54;44.38;100949.45;105198;1302;61256;-82
2022/06/28 04:01:35;;;;;;;;;;;;;;;26.54;44.20;100945.10;105138;1302;61977;-81
2022/06/28 04:04:01;;;;;;;;;;;;;;;26.54;44.44;100938.30;105110;1301;61294;-82
2022/06/28 04:06:26;;;;;;;;;;;;;;;26.54;44.44;100938.22;104803;1302;61339;-82
2022/06/28 04:08:52;;;;;;;;;;;;;;;26.54;44.14;100937.17;104816;1302;61114;-82
2022/06/28 04:11:18;;;;;;;;;;;;;;;26.55;44.37;100934.05;105002;1303;61410;-82
2022/06/28 04:13:44;;;;;;;;;;;;;;;26.55;44.21;100937.06;105194;1302;61385;-82
2022/06/28 04:16:10;;;;;;;;;;;;;;;26.56;44.33;100935.02;104939;1302;61402;-82
2022/06/28 04:18:35;;;;;;;;;;;;;;;26.56;44.25;100930.48;105092;1302;61265;-82
2022/06/28 04:21:00;;;;;;;;;;;;;;;26.56;44.14;100931.19;105183;1301;61273;-82
2022/06/28 04:23:26;;;;;;;;;;;;;;;26.56;44.36;100928.83;105161;1302;62462;-82
2022/06/28 04:25:53;;;;;;;;;;;;;;;26.57;44.13;100927.67;104897;1302;59440;-82
2022/06/28 04:28:19;;;;;;;;;;;;;;;26.57;44.23;100931.30;105139;1300;61394;-82
2022/06/28 04:30:44;;;;;;;;;;;;;;;26.56;44.47;100936.97;105253;1302;61251;-82
2022/06/28 04:33:10;;;;;;;;;;;;;;;26.55;44.40;100939.23;105107;1303;61439;-82
2022/06/28 04:35:35;;;;;;;;;;;;;;;26.56;44.03;100945.33;105166;1301;61241;-83
2022/06/28 04:38:01;;;;;;;;;;;;;;;26.56;44.00;100950.02;105104;1303;61393;-82
2022/06/28 04:40:26;;;;;;;;;;;;;;;26.56;44.12;100953.61;105163;1302;61277;-82
2022/06/28 04:42:52;;;;;;;;;;;;;;;26.56;44.16;100962.11;105193;1300;61258;-82
2022/06/28 04:45:17;;;;;;;;;;;;;;;26.56;44.17;100959.23;105226;1301;73223;-82
2022/06/28 04:47:43;;;;;;;;;;;;;;;26.56;44.17;100957.41;105159;1302;61304;-82
2022/06/28 04:50:09;;;;;;;;;;;;;;;26.56;44.10;100951.40;104930;1302;61278;-83
2022/06/28 04:52:34;;;;;;;;;;;;;;;26.56;44.00;100950.15;105123;1302;61246;-83
2022/06/28 04:55:00;;;;;;;;;;;;;;;26.56;43.94;100951.23;105262;1303;61291;-83
2022/06/28 04:57:25;;;;;;;;;;;;;;;26.56;43.98;100949.61;105107;1301;72842;-82
2022/06/28 04:59:51;;;;;;;;;;;;;;;26.56;44.08;100949.49;104930;1302;61378;-82
2022/06/28 05:02:16;;;;;;;;;;;;;;;26.56;43.98;100947.29;105125;1302;61217;-82
2022/06/28 05:04:42;;;;;;;;;;;;;;;26.56;44.07;100945.49;104903;1302;61369;-82
2022/06/28 05:07:07;;;;;;;;;;;;;;;26.55;44.13;100945.00;105239;1302;61293;-82
2022/06/28 05:09:32;;;;;;;;;;;;;;;26.54;44.02;100950.14;105159;1302;61106;-83
2022/06/28 05:11:58;;;;;;;;;;;;;;;26.54;44.05;100949.59;105129;1303;61437;-83
2022/06/28 05:14:23;;;;;;;;;;;;;;;26.55;43.97;100952.81;105201;1302;61290;-83
2022/06/28 05:16:49;;;;;;;;;;;;;;;26.55;43.97;100946.52;105237;1303;61246;-82
2022/06/28 05:19:14;;;;;;;;;;;;;;;26.55;43.84;100949.23;104982;1302;61324;-82
2022/06/28 05:21:40;;;;;;;;;;;;;;;26.55;43.84;100946.68;105241;1301;61391;-82
2022/06/28 05:24:05;;;;;;;;;;;;;;;26.55;43.95;100947.05;105111;1303;61987;-82
2022/06/28 05:26:31;;;;;;;;;;;;;;;26.55;43.95;100953.13;105199;1301;61269;-82
2022/06/28 05:28:56;;;;;;;;;;;;;;;26.55;44.05;100950.80;105109;1302;61356;-82
2022/06/28 05:31:22;;;;;;;;;;;;;;;26.54;43.77;100949.97;105152;1301;61260;-82
2022/06/28 05:33:47;;;;;;;;;;;;;;;26.54;43.92;100951.25;105197;1301;73792;-82
2022/06/28 05:36:13;;;;;;;;;;;;;;;26.54;43.91;100952.54;105095;1303;61489;-82
2022/06/28 05:38:38;;;;;;;;;;;;;;;26.54;43.93;100953.98;105229;1303;62187;-83
2022/06/28 05:41:04;;;;;;;;;;;;;;;26.54;43.76;100958.32;105110;1302;61368;-83
2022/06/28 05:43:30;;;;;;;;;;;;;;;26.53;43.96;100968.46;105149;1302;61326;-82
2022/06/28 05:45:55;;;;;;;;;;;;;;;26.53;44.03;100973.51;105236;1303;61274;-82
2022/06/28 05:48:21;;;;;;;;;;;;;;;26.53;43.82;100974.13;105109;1302;61240;-82
2022/06/28 05:50:47;;;;;;;;;;;;;;;26.51;44.02;100975.02;105146;1303;61279;-82
2022/06/28 05:53:13;;;;;;;;;;;;;;;26.51;44.04;100979.38;105125;1302;61399;-82
2022/06/28 05:55:38;;;;;;;;;;;;;;;26.51;43.75;100987.12;105225;1302;61244;-82
2022/06/28 05:58:04;;;;;;;;;;;;;;;26.51;43.87;100987.81;105094;1303;61368;-82
2022/06/28 06:00:29;;;;;;;;;;;;;;;26.52;43.96;100994.58;105198;1301;61308;-82
2022/06/28 06:02:55;;;;;;;;;;;;;;;26.52;43.73;100991.19;105212;1302;61237;-82
2022/06/28 06:05:20;;;;;;;;;;;;;;;26.52;43.81;100994.26;105210;1301;61201;-82
2022/06/28 06:07:46;;;;;;;;;;;;;;;26.51;44.09;100995.02;105030;1302;61381;-82
2022/06/28 06:10:11;;;;;;;;;;;;;;;26.50;43.93;100990.98;104884;1301;61382;-82
2022/06/28 06:12:37;;;;;;;;;;;;;;;26.49;43.69;100998.46;105026;1302;61362;-82
2022/06/28 06:15:02;;;;;;;;;;;;;;;26.49;43.81;101001.55;105130;1302;61407;-82
2022/06/28 06:17:28;;;;;;;;;;;;;;;26.47;43.72;100999.71;104948;1302;61279;-81
2022/06/28 06:19:53;;;;;;;;;;;;;;;26.47;43.72;101000.45;104840;1302;61318;-82
2022/06/28 06:22:19;;;;;;;;;;;;;;;26.46;44.01;101001.43;105080;1301;61272;-81
2022/06/28 06:24:44;;;;;;;;;;;;;;;26.46;43.62;101002.40;105172;1303;61421;-81
2022/06/28 06:27:10;;;;;;;;;;;;;;;26.46;43.80;101003.84;104614;1301;877623;-81
2022/06/28 06:29:36;;;;;;;;;;;;;;;26.46;43.91;101003.28;104963;1302;61298;-81
2022/06/28 06:32:01;;;;;;;;;;;;;;;26.46;43.83;101005.08;105173;1303;61384;-81
2022/06/28 06:34:26;;;;;;;;;;;;;;;26.46;43.86;101005.83;105241;1302;61249;-81
2022/06/28 06:36:52;;;;;;;;;;;;;;;26.47;43.76;101005.88;105162;1301;61272;-81
2022/06/28 06:39:17;;;;;;;;;;;;;;;26.48;43.70;101007.27;105249;1303;61296;-81
2022/06/28 06:41:43;;;;;;;;;;;;;;;26.48;43.91;101009.00;104922;1303;61275;-81
2022/06/28 06:44:09;;;;;;;;;;;;;;;26.49;43.94;101000.99;105193;1303;61246;-81
2022/06/28 06:46:36;;;;;;;;;;;;;;;26.50;43.81;101001.98;105162;1303;61268;-81
2022/06/28 06:49:01;;;;;;;;;;;;;;;26.51;43.71;101003.00;104999;1302;61395;-81
2022/06/28 06:51:27;;;;;;;;;;;;;;;26.51;43.93;101000.27;105157;1302;61263;-81
2022/06/28 06:53:52;;;;;;;;;;;;;;;26.52;43.67;101001.27;105031;1302;61985;-81
2022/06/28 06:56:18;;;;;;;;;;;;;;;26.52;43.84;101000.55;104940;1302;72579;-81
2022/06/28 06:58:44;;;;;;;;;;;;;;;26.52;43.79;101000.70;104934;1302;61270;-81
2022/06/28 07:01:10;;;;;;;;;;;;;;;26.52;43.86;101000.67;104879;1303;61345;-81
2022/06/28 07:03:40;;;;;;;;;;;;;;;26.53;44.17;100995.95;104896;1302;61270;-81
2022/06/28 07:06:05;;;;;;;;;;;;;;;26.54;43.94;100989.89;104873;1302;73964;-81
2022/06/28 07:08:31;;;;;;;;;;;;;;;26.54;43.97;100992.96;104855;1302;61246;-81
2022/06/28 07:10:56;;;;;;;;;;;;;;;26.54;44.13;100989.48;105204;1301;61329;-81
2022/06/28 07:13:22;;;;;;;;;;;;;;;26.55;44.08;100990.55;105113;1301;61236;-80
2022/06/28 07:15:48;;;;;;;;;;;;;;;26.54;44.02;100995.65;104996;1302;61251;-81
2022/06/28 07:18:14;;;;;;;;;;;;;;;26.54;44.07;101000.59;104786;1302;73496;-81
2022/06/28 07:20:39;;;;;;;;;;;;;;;26.54;44.09;100997.50;104754;1303;61413;-81
2022/06/28 07:23:05;;;;;;;;;;;;;;;26.54;44.25;100994.40;105015;1302;61652;-81
2022/06/28 07:25:30;;;;;;;;;;;;;;;26.54;44.18;100995.80;104943;1303;61307;-82
2022/06/28 07:27:56;;;;;;;;;;;;;;;26.55;44.12;101006.02;104792;1302;61268;-82
2022/06/28 07:30:23;;;;;;;;;;;;;;;26.55;44.15;101013.63;105008;1301;71778;-82
2022/06/28 07:32:49;;;;;;;;;;;;;;;26.54;44.32;101020.38;104890;1303;75075;-82
2022/06/28 07:35:14;;;;;;;;;;;;;;;26.52;44.28;101028.50;104820;1302;61266;-82
2022/06/28 07:37:40;;;;;;;;;;;;;;;26.47;44.29;101028.10;104706;1303;61653;-82
2022/06/28 07:40:05;;;;;;;;;;;;;;;26.45;44.24;101024.34;104913;1303;61291;-81
2022/06/28 07:42:31;;;;;;;;;;;;;;;26.43;44.57;101023.33;105029;1303;59459;-81
2022/06/28 07:44:56;;;;;;;;;;;;;;;26.44;44.52;101023.98;105160;1302;75600;-81
2022/06/28 07:47:21;;;;;;;;;;;;;;;26.45;44.60;101031.12;105098;1302;61249;-81
2022/06/28 07:52:34;;;;;;;;;;;;;;;26.48;44.56;101036.64;104971;1302;72134;-81
2022/06/28 07:55:00;;;;;;;;;;;;;;;26.49;44.49;101037.45;105088;1303;76112;-81
2022/06/28 07:57:25;;;;;;;;;;;;;;;26.49;44.69;101036.77;104811;1302;61169;-82
2022/06/28 07:59:51;;;;;;;;;;;;;;;26.48;44.71;101037.39;104980;1303;61240;-81
2022/06/28 08:02:16;;;;;;;;;;;;;;;26.46;44.78;101041.35;104892;1301;61178;-82
2022/06/28 08:04:42;;;;;;;;;;;;;;;26.46;44.62;101041.55;105055;1302;61297;-81
2022/06/28 08:07:07;;;;;;;;;;;;;;;26.46;45.07;101041.75;104932;1302;61224;-82
2022/06/28 08:09:33;;;;;;;;;;;;;;;26.46;44.98;101046.40;105108;1303;61367;-82
2022/06/28 08:11:58;;;;;;;;;;;;;;;26.46;45.04;101044.60;105224;1301;61255;-82
2022/06/28 08:14:24;;;;;;;;;;;;;;;26.46;44.92;101045.14;105009;1302;61240;-82
2022/06/28 08:16:49;;;;;;;;;;;;;;;26.45;45.15;101043.73;104980;1302;63703;-82
2022/06/28 08:19:15;;;;;;;;;;;;;;;26.46;45.12;101042.80;104988;1303;61362;-82
2022/06/28 08:21:40;;;;;;;;;;;;;;;26.47;45.24;101045.05;105088;1302;61261;-82
2022/06/28 08:24:06;;;;;;;;;;;;;;;26.47;45.25;101037.27;104860;1302;61397;-82
2022/06/28 08:26:31;;;;;;;;;;;;;;;26.47;45.24;101032.75;105052;1303;61334;-82
2022/06/28 08:28:57;;;;;;;;;;;;;;;26.48;45.37;101033.80;104933;1302;61368;-82
2022/06/28 08:31:22;;;;;;;;;;;;;;;26.48;45.36;101036.08;104944;1301;61401;-81
2022/06/28 08:33:48;;;;;;;;;;;;;;;26.48;45.50;101038.95;104966;1302;61256;-81
2022/06/28 08:36:13;;;;;;;;;;;;;;;26.48;45.43;101038.64;104930;1301;61275;-81
2022/06/28 08:38:38;;;;;;;;;;;;;;;26.48;45.64;101032.67;105144;1301;61265;-81
2022/06/28 08:41:04;;;;;;;;;;;;;;;26.48;45.54;101034.62;105246;1302;61365;-81
2022/06/28 08:43:31;;;;;;;;;;;;;;;26.48;45.88;101029.61;105204;1302;61214;-81
2022/06/28 08:45:57;;;;;;;;;;;;;;;26.48;45.71;101026.35;105277;1301;61265;-81
2022/06/28 08:48:24;;;;;;;;;;;;;;;26.48;45.63;101029.98;105219;1302;61415;-81
2022/06/28 08:50:51;;;;;;;;;;;;;;;26.48;45.87;101030.17;105129;1303;61148;-81
2022/06/28 08:53:16;;;;;;;;;;;;;;;26.48;45.74;101032.14;105189;1302;61176;-81
2022/06/28 08:55:42;;;;;;;;;;;;;;;26.48;45.75;101033.05;105106;1301;61222;-81
2022/06/28 08:58:08;;;;;;;;;;;;;;;26.47;45.67;101034.00;105032;1302;61394;-81
2022/06/28 09:00:33;;;;;;;;;;;;;;;26.47;45.84;101033.81;105184;1302;61316;-81
2022/06/28 09:02:59;;;;;;;;;;;;;;;26.46;45.67;101034.17;104868;1302;61273;-82
2022/06/28 09:05:25;;;;;;;;;;;;;;;26.45;45.91;101037.64;105058;1303;61364;-81
2022/06/28 09:07:51;;;;;;;;;;;;;;;26.44;45.99;101035.76;104992;1302;62453;-82
2022/06/28 09:10:19;;;;;;;;;;;;;;;26.43;46.00;101039.09;104867;1302;61413;-82
2022/06/28 09:12:54;;;;;;;;;;;;;;;26.42;46.16;101040.58;104914;1302;72718;-82
2022/06/28 09:15:23;;;;;;;;;;;;;;;26.42;46.14;101038.81;104838;1302;75822;-82
2022/06/28 09:17:52;;;;;;;;;;;;;;;26.42;46.00;101036.13;105107;1302;62158;-82
2022/06/28 09:20:18;;;;;;;;;;;;;;;26.42;46.12;101037.17;104967;1302;61694;-82
2022/06/28 09:22:43;;;;;;;;;;;;;;;26.42;46.26;101037.87;104984;1302;61360;-82
2022/06/28 09:25:11;;;;;;;;;;;;;;;26.43;46.15;101035.81;105072;1302;61264;-81
2022/06/28 09:27:38;;;;;;;;;;;;;;;26.43;46.28;101034.60;105182;1302;61301;-81
2022/06/28 09:30:05;;;;;;;;;;;;;;;26.43;46.26;101036.35;104748;1302;61342;-82
2022/06/28 09:32:31;;;;;;;;;;;;;;;26.43;46.57;101036.16;104700;1303;72074;-82
2022/06/28 09:35:00;;;;;;;;;;;;;;;26.44;46.25;101032.48;104741;1302;61313;-82
2022/06/28 09:37:37;;;;;;;;;;;;;;;26.44;46.51;101032.85;104825;1302;61433;-82
2022/06/28 09:40:16;;;;;;;;;;;;;;;26.45;46.54;101032.27;104894;1302;61124;-82
2022/06/28 09:42:42;;;;;;;;;;;;;;;26.45;46.60;101030.77;104983;1302;73059;-82
2022/06/28 09:45:09;;;;;;;;;;;;;;;26.45;46.44;101028.98;105030;1302;61304;-82
2022/06/28 09:47:35;;;;;;;;;;;;;;;26.45;46.44;101027.72;104980;1302;61467;-82
2022/06/28 09:50:04;;;;;;;;;;;;;;;26.46;46.49;101031.95;104943;1303;61260;-82
2022/06/28 09:52:30;;;;;;;;;;;;;;;26.46;46.67;101034.82;104985;1302;72921;-82
2022/06/28 09:54:56;;;;;;;;;;;;;;;26.46;46.58;101030.17;104998;1302;61282;-81
2022/06/28 09:57:22;;;;;;;;;;;;;;;26.47;46.56;101032.83;104971;1302;61387;-81
2022/06/28 09:59:49;;;;;;;;;;;;;;;26.47;46.54;101030.41;104925;1303;61262;-82
2022/06/28 10:02:15;;;;;;;;;;;;;;;26.48;46.40;101027.84;105469;1302;61332;-82
2022/06/28 10:04:40;;;;;;;;;;;;;;;26.48;46.60;101029.98;104907;1302;61278;-82
2022/06/28 10:07:08;;;;;;;;;;;;;;;26.49;46.54;101026.42;104819;1302;61224;-82
2022/06/28 10:09:34;;;;;;;;;;;;;;;26.50;46.73;101020.02;105117;1302;61314;-81
2022/06/28 10:15:02;;;;;;;;;;;;;;;26.51;46.42;101019.61;104944;1301;74670;-82
2022/06/28 10:17:29;;;;;;;;;;;;;;;26.52;46.62;101016.45;105283;1302;61351;-82
2022/06/28 10:19:58;;;;;;;;;;;;;;;26.52;46.52;101012.27;104975;1301;61310;-81
2022/06/28 10:22:23;;;;;;;;;;;;;;;26.52;46.79;101010.24;104899;1302;73612;-82
2022/06/28 10:24:56;;;;;;;;;;;;;;;26.53;46.66;101004.26;104893;1302;61295;-82
2022/06/28 10:27:22;;;;;;;;;;;;;;;26.53;46.67;101002.44;104831;1302;61107;-82
2022/06/28 10:30:08;;;;;;;;;;;;;;;26.53;46.83;101001.89;104966;1301;61279;-81
2022/06/28 10:32:52;;;;;;;;;;;;;;;26.53;46.62;100995.26;104924;1302;73235;-82
2022/06/28 10:35:31;;;;;;;;;;;;;;;26.54;46.71;100997.16;105047;1301;74827;-82
2022/06/28 10:38:16;;;;;;;;;;;;;;;26.54;46.82;100993.00;104994;1302;61546;-82
2022/06/28 10:40:42;;;;;;;;;;;;;;;26.54;46.73;100992.94;104804;1302;61255;-82
2022/06/28 10:43:07;;;;;;;;;;;;;;;26.55;46.75;100990.16;105115;1302;61281;-82
2022/06/28 10:45:52;;;;;;;;;;;;;;;26.55;46.74;100985.82;104886;1302;61281;-81
2022/06/28 10:48:17;;;;;;;;;;;;;;;26.55;46.73;100981.83;105178;1302;61716;-81
2022/06/28 10:50:59;;;;;;;;;;;;;;;26.55;47.00;100984.88;105130;1301;61358;-81
2022/06/28 10:53:25;;;;;;;;;;;;;;;26.55;46.95;100982.17;105037;1302;73175;-81
2022/06/28 10:56:09;;;;;;;;;;;;;;;26.55;46.90;100978.60;104973;1302;61235;-81
2022/06/28 10:58:49;;;;;;;;;;;;;;;26.55;46.92;100978.06;105112;1302;61262;-81
2022/06/28 11:01:14;;;;;;;;;;;;;;;26.54;46.84;100979.19;105050;1301;61188;-81
2022/06/28 11:04:12;;;;;;;;;;;;;;;26.54;47.06;100975.27;104913;1302;61426;-81
2022/06/28 11:06:44;;;;;;;;;;;;;;;26.54;47.01;100973.52;104589;1308;75810;-82
2022/06/28 11:09:19;;;;;;;;;;;;;;;26.53;46.95;100970.55;104570;1308;61186;-82
2022/06/28 11:12:03;;;;;;;;;;;;;;;26.52;47.10;100969.52;104535;1308;61195;-81
2022/06/28 11:14:29;;;;;;;;;;;;;;;26.51;47.24;100969.95;104610;1306;71643;-81
2022/06/28 11:16:55;;;;;;;;;;;;;;;26.51;46.95;100969.06;104501;1308;74797;-82
2022/06/28 11:19:21;;;;;;;;;;;;;;;26.51;47.19;100968.74;104391;1307;59443;-82
2022/06/28 11:21:46;;;;;;;;;;;;;;;26.50;46.95;100966.45;104361;1307;63011;-82
2022/06/28 11:24:12;;;;;;;;;;;;;;;26.50;47.18;100963.42;104542;1307;61751;-82
2022/06/28 11:29:21;;;;;;;;;;;;;;;26.46;47.16;100961.26;104607;1306;75828;-81
2022/06/28 11:31:46;;;;;;;;;;;;;;;26.43;47.13;100955.46;104548;1306;62401;-82
2022/06/28 11:34:12;;;;;;;;;;;;;;;26.43;47.29;100954.24;104600;1306;61272;-82
2022/06/28 11:36:37;;;;;;;;;;;;;;;26.42;47.36;100953.10;104588;1306;61348;-82
2022/06/28 11:39:03;;;;;;;;;;;;;;;26.41;47.21;100952.81;104437;1307;61384;-82
2022/06/28 11:41:30;;;;;;;;;;;;;;;26.40;47.30;100948.36;104399;1307;74818;-82
2022/06/28 11:43:59;;;;;;;;;;;;;;;26.40;47.46;100945.33;104869;1302;61253;-82
2022/06/28 11:46:26;;;;;;;;;;;;;;;26.40;47.46;100946.23;104816;1302;61625;-82
2022/06/28 11:48:51;;;;;;;;;;;;;;;26.39;47.22;100940.02;104889;1303;72679;-82
2022/06/28 11:51:24;;;;;;;;;;;;;;;26.39;47.51;100941.09;104890;1301;61280;-82
2022/06/28 11:53:49;;;;;;;;;;;;;;;26.39;47.25;100936.95;104980;1302;61259;-82
2022/06/28 11:56:14;;;;;;;;;;;;;;;26.38;47.49;100932.30;105168;1302;61259;-82
2022/06/28 11:58:40;;;;;;;;;;;;;;;26.39;47.26;100925.21;104957;1302;61287;-82
2022/06/28 12:01:09;;;;;;;;;;;;;;;26.39;47.19;100922.64;104955;1302;61403;-82
2022/06/28 12:03:36;;;;;;;;;;;;;;;26.40;47.24;100924.20;104956;1302;61289;-82
2022/06/28 12:06:02;;;;;;;;;;;;;;;26.41;47.16;100923.02;104802;1302;61184;-82
2022/06/28 12:08:46;;;;;;;;;;;;;;;26.41;47.10;100922.67;104852;1302;61454;-82
2022/06/28 12:11:31;;;;;;;;;;;;;;;26.41;47.12;100920.50;105139;1302;75870;-82
2022/06/28 12:13:59;;;;;;;;;;;;;;;26.41;46.98;100917.94;104900;1302;61151;-82
2022/06/28 12:16:36;;;;;;;;;;;;;;;26.42;46.87;100915.54;104933;1302;61329;-82
2022/06/28 12:19:02;;;;;;;;;;;;;;;26.41;46.82;100911.66;104861;1302;74199;-82
2022/06/28 12:21:28;;;;;;;;;;;;;;;26.41;46.84;100907.00;105001;1302;61342;-82
2022/06/28 12:23:55;;;;;;;;;;;;;;;26.41;46.67;100902.63;104884;1302;61254;-82
2022/06/28 12:26:21;;;;;;;;;;;;;;;26.41;46.66;100902.45;104835;1303;61287;-82
2022/06/28 12:28:46;;;;;;;;;;;;;;;26.41;46.66;100899.55;105115;1302;61140;-81
2022/06/28 12:31:12;;;;;;;;;;;;;;;26.38;46.54;100895.68;104893;1303;61342;-81
2022/06/28 12:33:37;;;;;;;;;;;;;;;26.36;46.52;100895.40;104865;1302;61223;-81
2022/06/28 12:36:03;;;;;;;;;;;;;;;26.35;46.39;100889.11;104957;1303;61326;-83
2022/06/28 12:38:29;;;;;;;;;;;;;;;26.36;46.57;100891.56;104812;1302;61212;-82